Time;durP1;ratioP1;P1;durP2;ratioP2;P2;SDS_P1;SDS_P2;PMS_P1;PMS_P2;Temp;Humidity;BMP_temperature;BMP_pressure;BME280_temperature;BME280_humidity;BME280_pressure;Samples;Min_cycle;Max_cycle;Signal;HPM_P1;HPM_P2
2021/05/16 00:02:23;;;;;;;;;;;;;;;21.74;29.96;97205.53;5121162;28;1906;-75
2021/05/16 00:04:49;;;;;;;;;;;;;;;21.51;30.17;97201.97;5120877;28;1531;-74
2021/05/16 00:07:14;;;;;;;;;;;;;;;21.59;30.40;97196.81;5120982;28;901;-75
2021/05/16 00:09:40;;;;;;;;;;;;;;;21.68;30.11;97199.69;5121121;28;896;-76
2021/05/16 00:12:06;;;;;;;;;;;;;;;21.85;29.64;97203.84;5121192;28;618;-76
2021/05/16 00:14:32;;;;;;;;;;;;;;;21.67;30.07;97203.00;5120965;28;1519;-75
2021/05/16 00:16:57;;;;;;;;;;;;;;;21.70;30.02;97202.84;5120972;28;644;-76
2021/05/16 00:19:22;;;;;;;;;;;;;;;21.67;29.89;97217.94;5120944;28;1083;-75
2021/05/16 00:21:48;;;;;;;;;;;;;;;21.73;30.08;97207.59;5120835;28;849;-75
2021/05/16 00:24:14;;;;;;;;;;;;;;;21.57;30.30;97199.34;5102775;28;1945;-75
2021/05/16 00:26:39;;;;;;;;;;;;;;;21.62;30.33;97200.78;5121001;28;669;-76
2021/05/16 00:29:04;;;;;;;;;;;;;;;21.69;30.03;97201.28;5121039;28;603;-75
2021/05/16 00:31:30;;;;;;;;;;;;;;;21.75;29.89;97193.75;5120862;28;614;-76
2021/05/16 00:33:56;;;;;;;;;;;;;;;21.66;30.11;97178.75;5119153;28;1487;-74
2021/05/16 00:36:22;;;;;;;;;;;;;;;21.64;30.25;97170.72;5120583;28;1708;-75
2021/05/16 00:38:48;;;;;;;;;;;;;;;21.76;30.13;97181.19;5120689;28;874;-75
2021/05/16 00:41:13;;;;;;;;;;;;;;;21.68;30.05;97179.09;5120731;28;590;-75
2021/05/16 00:43:39;;;;;;;;;;;;;;;21.78;29.82;97175.03;5120820;28;1909;-74
2021/05/16 00:46:08;;;;;;;;;;;;;;;21.73;30.20;97178.47;5119942;28;1542;-75
2021/05/16 00:48:34;;;;;;;;;;;;;;;21.71;29.94;97181.78;5120411;28;841;-76
2021/05/16 00:50:59;;;;;;;;;;;;;;;21.63;30.15;97179.69;5120411;28;913;-76
2021/05/16 00:53:25;;;;;;;;;;;;;;;21.59;30.35;97177.00;5120697;28;964;-76
2021/05/16 00:55:51;;;;;;;;;;;;;;;21.70;30.31;97179.41;5120290;28;1598;-76
2021/05/16 00:58:17;;;;;;;;;;;;;;;21.75;30.11;97171.09;5120346;28;1649;-76
2021/05/16 01:00:43;;;;;;;;;;;;;;;21.64;30.39;97173.56;5120725;28;626;-76
2021/05/16 01:03:12;;;;;;;;;;;;;;;21.73;30.01;97167.94;5102912;28;1905;-76
2021/05/16 01:05:41;;;;;;;;;;;;;;;21.75;29.99;97176.75;5120241;28;865;-76
2021/05/16 01:08:07;;;;;;;;;;;;;;;21.83;29.91;97180.88;5136547;27;864;-76
2021/05/16 01:10:33;;;;;;;;;;;;;;;21.78;30.20;97181.50;5120650;28;632;-76
2021/05/16 01:12:58;;;;;;;;;;;;;;;21.75;29.92;97181.63;5120489;28;609;-76
2021/05/16 01:15:26;;;;;;;;;;;;;;;21.67;30.19;97178.31;5120485;28;637;-76
2021/05/16 01:17:54;;;;;;;;;;;;;;;21.59;30.47;97203.25;5119918;28;1416;-75
2021/05/16 01:20:26;;;;;;;;;;;;;;;21.56;30.18;97175.13;5120497;28;927;-76
2021/05/16 01:22:56;;;;;;;;;;;;;;;21.69;30.06;97172.97;5120431;28;1974;-76
2021/05/16 01:25:22;;;;;;;;;;;;;;;21.75;29.87;97178.78;5120388;28;729;-76
2021/05/16 01:27:48;;;;;;;;;;;;;;;21.66;30.27;97171.06;5120213;28;1534;-74
2021/05/16 01:30:14;;;;;;;;;;;;;;;21.67;29.99;97175.47;5120355;28;678;-76
2021/05/16 01:32:39;;;;;;;;;;;;;;;21.59;30.35;97169.28;5085739;28;1182;-76
2021/05/16 01:35:07;;;;;;;;;;;;;;;21.59;30.12;97162.84;5119838;28;948;-76
2021/05/16 01:37:33;;;;;;;;;;;;;;;21.57;30.31;97165.38;5120025;28;1475;-75
2021/05/16 01:39:59;;;;;;;;;;;;;;;21.55;30.44;97173.53;5120166;28;1578;-76
2021/05/16 01:42:25;;;;;;;;;;;;;;;21.66;30.12;97167.44;5120145;28;1909;-75
2021/05/16 01:44:53;;;;;;;;;;;;;;;21.62;30.09;97164.75;5121915;28;605;-75
2021/05/16 01:47:20;;;;;;;;;;;;;;;21.55;30.32;97168.66;5123736;28;931;-76
2021/05/16 01:49:49;;;;;;;;;;;;;;;21.58;30.42;97169.78;5123521;28;1503;-76
2021/05/16 01:52:14;;;;;;;;;;;;;;;21.79;29.82;97166.06;5123735;28;790;-75
2021/05/16 01:54:40;;;;;;;;;;;;;;;21.87;29.68;97165.81;5123758;28;637;-76
2021/05/16 01:57:06;;;;;;;;;;;;;;;21.81;29.84;97174.91;5123848;28;642;-76
2021/05/16 01:59:31;;;;;;;;;;;;;;;21.81;29.80;97180.56;5123276;28;1527;-75
2021/05/16 02:01:59;;;;;;;;;;;;;;;21.86;29.85;97181.97;5105483;28;1492;-76
2021/05/16 02:04:28;;;;;;;;;;;;;;;21.84;29.74;97179.63;5089645;28;1165;-76
2021/05/16 02:06:57;;;;;;;;;;;;;;;21.80;29.78;97178.97;5106045;28;1289;-76
2021/05/16 02:09:22;;;;;;;;;;;;;;;21.85;29.76;97177.56;5123313;28;1554;-76
2021/05/16 02:11:49;;;;;;;;;;;;;;;21.81;30.09;97179.75;5106023;28;1257;-76
2021/05/16 02:14:24;;;;;;;;;;;;;;;21.95;29.63;97173.53;5123481;28;649;-75
2021/05/16 02:16:50;;;;;;;;;;;;;;;21.72;29.92;97166.38;5123041;28;1495;-75
2021/05/16 02:19:16;;;;;;;;;;;;;;;21.68;30.32;97177.06;5105505;28;1305;-75
2021/05/16 02:21:42;;;;;;;;;;;;;;;21.70;29.90;97171.69;5123287;28;956;-76
2021/05/16 02:24:07;;;;;;;;;;;;;;;21.70;30.22;97180.19;5123090;28;1897;-75
2021/05/16 02:26:50;;;;;;;;;;;;;;;21.68;30.02;97174.22;5105348;28;1362;-75
2021/05/16 02:29:16;;;;;;;;;;;;;;;21.93;29.48;97178.88;5123229;28;618;-75
2021/05/16 02:31:42;;;;;;;;;;;;;;;21.90;29.60;97176.19;5122684;28;853;-75
2021/05/16 02:34:08;;;;;;;;;;;;;;;21.82;29.59;97176.47;5123052;28;828;-75
2021/05/16 02:36:35;;;;;;;;;;;;;;;21.57;30.02;97179.53;5105375;28;1165;-75
2021/05/16 02:39:01;;;;;;;;;;;;;;;21.58;30.34;97181.88;5104887;28;1484;-75
2021/05/16 02:41:27;;;;;;;;;;;;;;;21.68;29.97;97181.94;5122020;28;1400;-76
2021/05/16 02:43:53;;;;;;;;;;;;;;;21.78;29.97;97175.03;5104031;28;1968;-75
2021/05/16 02:46:19;;;;;;;;;;;;;;;21.75;29.82;97173.91;5122082;28;1606;-75
2021/05/16 02:48:46;;;;;;;;;;;;;;;21.78;29.65;97172.22;5104648;28;1422;-75
2021/05/16 02:51:14;;;;;;;;;;;;;;;21.88;29.45;97161.72;5122541;28;1028;-75
2021/05/16 02:53:44;;;;;;;;;;;;;;;21.64;29.91;97165.06;5105209;28;1113;-75
2021/05/16 02:56:09;;;;;;;;;;;;;;;21.68;29.97;97174.22;5121184;28;1503;-74
2021/05/16 02:58:35;;;;;;;;;;;;;;;21.70;29.95;97168.88;5122596;28;1043;-73
2021/05/16 03:01:01;;;;;;;;;;;;;;;21.71;29.79;97173.31;5122110;28;861;-73
2021/05/16 03:03:34;;;;;;;;;;;;;;;21.67;29.84;97181.13;5121980;28;1902;-73
2021/05/16 03:06:04;;;;;;;;;;;;;;;21.74;29.81;97180.84;5122270;28;1208;-73
2021/05/16 03:08:30;;;;;;;;;;;;;;;21.69;29.65;97189.94;5122163;28;1521;-73
2021/05/16 03:10:57;;;;;;;;;;;;;;;21.59;29.93;97185.50;5104765;28;1185;-73
2021/05/16 03:13:23;;;;;;;;;;;;;;;21.79;29.41;97185.91;5104732;28;1245;-73
2021/05/16 03:15:49;;;;;;;;;;;;;;;21.69;29.54;97189.16;5104527;28;1177;-74
2021/05/16 03:18:16;;;;;;;;;;;;;;;21.67;29.79;97192.47;5137057;27;1462;-73
2021/05/16 03:20:43;;;;;;;;;;;;;;;21.63;29.88;97186.16;5121826;28;1555;-76
2021/05/16 03:23:09;;;;;;;;;;;;;;;21.66;29.91;97188.06;5122085;28;1902;-75
2021/05/16 03:25:36;;;;;;;;;;;;;;;21.62;29.71;97195.91;5104720;28;1193;-75
2021/05/16 03:28:02;;;;;;;;;;;;;;;21.71;29.76;97181.78;5119490;28;1487;-75
2021/05/16 03:30:28;;;;;;;;;;;;;;;21.68;29.82;97187.59;5121606;28;1058;-76
2021/05/16 03:32:53;;;;;;;;;;;;;;;21.59;29.75;97185.50;5121730;28;863;-75
2021/05/16 03:35:19;;;;;;;;;;;;;;;21.61;29.66;97188.66;5121688;28;1018;-75
2021/05/16 03:37:44;;;;;;;;;;;;;;;21.64;29.83;97176.41;5138272;27;680;-75
2021/05/16 03:40:10;;;;;;;;;;;;;;;21.76;29.56;97183.19;5104094;28;1543;-75
2021/05/16 03:42:35;;;;;;;;;;;;;;;21.69;29.69;97184.28;5121655;28;1905;-75
2021/05/16 03:45:01;;;;;;;;;;;;;;;21.67;29.49;97183.19;5121328;28;883;-76
2021/05/16 03:47:26;;;;;;;;;;;;;;;21.60;29.75;97178.56;5121393;28;825;-76
2021/05/16 03:49:52;;;;;;;;;;;;;;;21.66;29.92;97190.91;5121198;28;1503;-76
2021/05/16 03:52:19;;;;;;;;;;;;;;;21.68;29.73;97182.72;5121670;28;677;-75
2021/05/16 03:54:48;;;;;;;;;;;;;;;21.66;29.77;97181.59;5121448;28;686;-75
2021/05/16 03:57:16;;;;;;;;;;;;;;;21.65;29.78;97183.63;5121472;28;642;-75
2021/05/16 03:59:42;;;;;;;;;;;;;;;21.66;29.60;97181.59;5120982;28;1475;-75
2021/05/16 04:02:07;;;;;;;;;;;;;;;21.73;29.80;97184.16;5120805;28;1965;-75
2021/05/16 04:04:33;;;;;;;;;;;;;;;21.77;29.43;97184.81;5121175;28;951;-75
2021/05/16 04:06:58;;;;;;;;;;;;;;;21.62;30.03;97197.94;5121320;28;654;-75
2021/05/16 04:09:24;;;;;;;;;;;;;;;21.76;29.50;97206.66;5121154;28;666;-76
2021/05/16 04:11:49;;;;;;;;;;;;;;;21.70;29.70;97208.50;5121321;28;631;-75
2021/05/16 04:14:16;;;;;;;;;;;;;;;21.76;29.60;97209.50;5120669;28;891;-75
2021/05/16 04:16:41;;;;;;;;;;;;;;;21.76;29.85;97212.34;5120993;28;811;-75
2021/05/16 04:19:07;;;;;;;;;;;;;;;21.69;29.70;97211.81;5120776;28;869;-75
2021/05/16 04:21:32;;;;;;;;;;;;;;;21.75;29.88;97221.28;5121235;28;689;-75
2021/05/16 04:23:58;;;;;;;;;;;;;;;21.73;29.97;97218.13;5120320;28;1918;-76
2021/05/16 04:26:23;;;;;;;;;;;;;;;21.73;29.74;97227.41;5120471;28;1185;-76
2021/05/16 04:28:49;;;;;;;;;;;;;;;21.76;29.94;97229.31;5120692;28;1200;-75
2021/05/16 04:31:14;;;;;;;;;;;;;;;21.67;30.05;97232.09;5120379;28;1287;-75
2021/05/16 04:33:40;;;;;;;;;;;;;;;21.62;30.04;97235.53;5120313;28;1070;-75
2021/05/16 04:36:05;;;;;;;;;;;;;;;21.78;29.85;97243.00;5120390;28;1185;-75
2021/05/16 04:38:31;;;;;;;;;;;;;;;21.73;30.03;97247.22;5120255;28;1216;-75
2021/05/16 04:40:56;;;;;;;;;;;;;;;21.67;29.78;97245.47;5120240;28;1181;-75
2021/05/16 04:43:22;;;;;;;;;;;;;;;21.71;30.25;97243.25;5119892;28;1976;-75
2021/05/16 04:45:47;;;;;;;;;;;;;;;21.75;29.81;97243.91;5119888;28;1192;-75
2021/05/16 04:48:13;;;;;;;;;;;;;;;21.75;29.96;97239.03;5119994;28;1260;-75
2021/05/16 04:50:38;;;;;;;;;;;;;;;21.69;29.95;97240.13;5120201;28;1213;-76
2021/05/16 04:53:03;;;;;;;;;;;;;;;21.65;29.98;97240.25;5120092;28;1207;-76
2021/05/16 04:55:29;;;;;;;;;;;;;;;21.59;30.14;97234.41;5102617;28;1217;-75
2021/05/16 04:57:55;;;;;;;;;;;;;;;21.66;30.13;97229.72;5116993;28;1051;-76
2021/05/16 05:00:21;;;;;;;;;;;;;;;21.81;29.74;97225.06;5101654;28;1111;-75
2021/05/16 05:02:47;;;;;;;;;;;;;;;21.59;30.26;97208.94;5119940;28;1980;-75
2021/05/16 05:05:13;;;;;;;;;;;;;;;21.57;30.29;97227.66;5120401;28;1319;-76
2021/05/16 05:07:38;;;;;;;;;;;;;;;21.69;29.78;97228.78;5085766;28;1283;-75
2021/05/16 05:10:04;;;;;;;;;;;;;;;21.74;29.63;97220.47;5102308;28;1189;-75
2021/05/16 05:12:29;;;;;;;;;;;;;;;21.67;29.86;97226.44;5119589;28;1130;-76
2021/05/16 05:14:55;;;;;;;;;;;;;;;21.55;30.16;97224.47;5119631;28;1317;-76
2021/05/16 05:17:20;;;;;;;;;;;;;;;21.70;30.11;97225.50;5120108;28;1142;-76
2021/05/16 05:19:45;;;;;;;;;;;;;;;21.75;29.73;97222.06;5121890;28;1244;-75
2021/05/16 05:22:11;;;;;;;;;;;;;;;21.78;29.99;97221.13;5123909;28;1913;-76
2021/05/16 05:24:36;;;;;;;;;;;;;;;21.86;29.76;97227.28;5124188;28;1193;-76
2021/05/16 05:27:02;;;;;;;;;;;;;;;21.73;30.00;97230.25;5123381;28;1252;-75
2021/05/16 05:29:27;;;;;;;;;;;;;;;21.92;29.70;97236.00;5123583;28;1197;-76
2021/05/16 05:31:53;;;;;;;;;;;;;;;21.70;30.00;97230.38;5123613;28;1216;-75
2021/05/16 05:34:19;;;;;;;;;;;;;;;21.56;29.96;97234.56;5123940;28;1189;-75
2021/05/16 05:36:45;;;;;;;;;;;;;;;21.59;29.88;97239.28;5123750;28;1201;-75
2021/05/16 05:39:11;;;;;;;;;;;;;;;21.68;29.97;97245.00;5123554;28;1197;-76
2021/05/16 05:41:36;;;;;;;;;;;;;;;21.67;29.66;97243.44;5123297;28;1142;-75
2021/05/16 05:44:02;;;;;;;;;;;;;;;21.70;29.74;97244.53;5123215;28;1978;-75
2021/05/16 05:46:28;;;;;;;;;;;;;;;21.73;29.74;97247.22;5123347;28;1122;-76
2021/05/16 05:48:54;;;;;;;;;;;;;;;21.66;29.64;97239.03;5123365;28;1339;-75
2021/05/16 05:51:20;;;;;;;;;;;;;;;21.81;29.58;97231.56;5123381;28;1189;-76
2021/05/16 05:53:45;;;;;;;;;;;;;;;21.82;29.47;97232.34;5123488;28;1130;-75
2021/05/16 05:56:11;;;;;;;;;;;;;;;21.51;29.96;97229.50;5122848;28;1252;-76
2021/05/16 05:58:36;;;;;;;;;;;;;;;21.62;29.52;97234.75;5122706;28;1260;-75
2021/05/16 06:01:05;;;;;;;;;;;;;;;21.56;30.00;97237.41;5123180;28;1130;-76
2021/05/16 06:03:30;;;;;;;;;;;;;;;21.62;29.89;97234.75;5123102;28;1966;-76
2021/05/16 06:05:56;;;;;;;;;;;;;;;21.67;29.87;97236.97;5122977;28;1229;-75
2021/05/16 06:08:21;;;;;;;;;;;;;;;21.65;29.58;97240.25;5123204;28;1197;-76
2021/05/16 06:10:47;;;;;;;;;;;;;;;21.74;29.40;97231.03;5122680;28;1232;-75
2021/05/16 06:13:13;;;;;;;;;;;;;;;21.58;29.81;97240.53;5088116;28;1249;-75
2021/05/16 06:15:38;;;;;;;;;;;;;;;21.64;29.99;97241.50;5088514;28;1217;-75
2021/05/16 06:18:04;;;;;;;;;;;;;;;21.72;29.83;97245.66;5105534;28;1066;-75
2021/05/16 06:20:29;;;;;;;;;;;;;;;21.71;29.71;97237.59;5123575;28;709;-75
2021/05/16 06:22:55;;;;;;;;;;;;;;;21.78;29.46;97237.34;5123217;28;1972;-74
2021/05/16 06:25:20;;;;;;;;;;;;;;;21.67;29.38;97246.25;5123142;28;884;-74
2021/05/16 06:27:46;;;;;;;;;;;;;;;21.72;29.43;97245.66;5123131;28;908;-75
2021/05/16 06:30:11;;;;;;;;;;;;;;;21.59;29.85;97242.91;5123005;28;914;-74
2021/05/16 06:32:38;;;;;;;;;;;;;;;21.64;29.61;97244.34;5122952;28;644;-75
2021/05/16 06:35:03;;;;;;;;;;;;;;;21.60;29.87;97243.69;5105468;28;881;-74
2021/05/16 06:37:29;;;;;;;;;;;;;;;21.64;29.86;97244.34;5123227;28;646;-75
2021/05/16 06:39:54;;;;;;;;;;;;;;;21.69;29.42;97255.06;5123014;28;606;-74
2021/05/16 06:42:21;;;;;;;;;;;;;;;21.71;29.54;97254.59;5122731;28;1902;-75
2021/05/16 06:44:47;;;;;;;;;;;;;;;21.72;29.64;97256.97;5105010;28;950;-75
2021/05/16 06:47:12;;;;;;;;;;;;;;;21.70;29.58;97265.13;5122558;28;865;-73
2021/05/16 06:49:38;;;;;;;;;;;;;;;21.67;29.83;97273.78;5122895;28;1048;-74
2021/05/16 06:52:03;;;;;;;;;;;;;;;21.68;29.62;97272.53;5122945;28;606;-75
2021/05/16 06:54:29;;;;;;;;;;;;;;;21.68;29.42;97266.88;5123022;28;637;-75
2021/05/16 06:56:54;;;;;;;;;;;;;;;21.71;29.38;97263.09;5122488;28;579;-75
2021/05/16 06:59:20;;;;;;;;;;;;;;;21.72;29.29;97262.66;5121956;28;952;-75
2021/05/16 07:01:45;;;;;;;;;;;;;;;21.67;29.40;97271.75;5122307;28;830;-75
2021/05/16 07:04:11;;;;;;;;;;;;;;;21.57;29.74;97267.28;5122217;28;1984;-75
2021/05/16 07:06:36;;;;;;;;;;;;;;;21.54;29.76;97271.00;5122581;28;618;-75
2021/05/16 07:09:02;;;;;;;;;;;;;;;21.56;29.64;97282.69;5122759;28;570;-75
2021/05/16 07:11:28;;;;;;;;;;;;;;;21.63;29.20;97290.91;5122065;28;1020;-75
2021/05/16 07:13:53;;;;;;;;;;;;;;;21.49;29.43;97283.72;5121860;28;907;-75
2021/05/16 07:16:19;;;;;;;;;;;;;;;21.62;29.28;97286.50;5122620;28;924;-75
2021/05/16 07:18:44;;;;;;;;;;;;;;;21.49;29.49;97285.75;5122228;28;622;-75
2021/05/16 07:21:10;;;;;;;;;;;;;;;21.68;29.86;97283.84;5122015;28;606;-75
2021/05/16 07:23:35;;;;;;;;;;;;;;;22.12;29.82;97283.78;5122168;28;1909;-75
2021/05/16 07:26:01;;;;;;;;;;;;;;;22.27;30.08;97282.72;5121676;28;1088;-75
2021/05/16 07:28:26;;;;;;;;;;;;;;;22.44;30.36;97280.44;5121889;28;917;-75
2021/05/16 07:30:52;;;;;;;;;;;;;;;22.32;30.45;97293.44;5121787;28;840;-75
2021/05/16 07:33:17;;;;;;;;;;;;;;;21.91;30.86;97299.53;5121890;28;697;-75
2021/05/16 07:35:43;;;;;;;;;;;;;;;21.90;30.79;97295.13;5121755;28;612;-75
2021/05/16 07:38:08;;;;;;;;;;;;;;;21.89;30.49;97296.41;5121350;28;998;-75
2021/05/16 07:40:34;;;;;;;;;;;;;;;21.79;30.73;97296.34;5103894;28;915;-75
2021/05/16 07:42:59;;;;;;;;;;;;;;;21.73;30.44;97295.38;5120882;28;1986;-75
2021/05/16 07:45:25;;;;;;;;;;;;;;;21.73;30.21;97298.19;5121564;28;835;-75
2021/05/16 07:47:50;;;;;;;;;;;;;;;21.68;30.54;97289.50;5121976;28;582;-75
2021/05/16 07:50:16;;;;;;;;;;;;;;;21.70;30.52;97293.44;5103783;28;686;-75
2021/05/16 07:52:41;;;;;;;;;;;;;;;21.65;30.53;97296.09;5121141;28;925;-75
2021/05/16 07:55:07;;;;;;;;;;;;;;;21.64;30.46;97281.16;5121174;28;887;-75
2021/05/16 07:57:33;;;;;;;;;;;;;;;21.65;30.07;97287.59;5104402;28;852;-75
2021/05/16 07:59:58;;;;;;;;;;;;;;;21.57;30.31;97290.72;5121432;28;1106;-75
2021/05/16 08:02:24;;;;;;;;;;;;;;;21.63;29.91;97296.56;5121221;28;1984;-75
2021/05/16 08:04:49;;;;;;;;;;;;;;;21.51;30.20;97292.56;5121361;28;857;-75
2021/05/16 08:07:17;;;;;;;;;;;;;;;21.62;29.82;97286.50;5121186;28;929;-74
2021/05/16 08:09:43;;;;;;;;;;;;;;;21.64;29.73;97292.47;5121492;28;941;-75
2021/05/16 08:12:09;;;;;;;;;;;;;;;21.66;29.76;97287.16;5121230;28;670;-75
2021/05/16 08:14:36;;;;;;;;;;;;;;;21.49;29.75;97282.94;5121024;28;663;-75
2021/05/16 08:17:03;;;;;;;;;;;;;;;21.45;30.16;97287.94;5120972;28;677;-75
2021/05/16 08:19:28;;;;;;;;;;;;;;;21.55;29.90;97287.56;5121006;28;824;-75
2021/05/16 08:21:53;;;;;;;;;;;;;;;21.62;29.42;97283.66;5120812;28;840;-75
2021/05/16 08:24:19;;;;;;;;;;;;;;;21.64;29.49;97275.47;5120783;28;1967;-75
2021/05/16 08:26:44;;;;;;;;;;;;;;;21.50;29.73;97274.00;5120904;28;632;-75
2021/05/16 08:29:10;;;;;;;;;;;;;;;21.48;29.58;97276.50;5120883;28;650;-75
2021/05/16 08:31:35;;;;;;;;;;;;;;;21.46;29.53;97269.72;5121133;28;661;-75
2021/05/16 08:34:03;;;;;;;;;;;;;;;21.51;29.72;97272.75;5120423;28;917;-75
2021/05/16 08:36:32;;;;;;;;;;;;;;;21.56;29.42;97265.69;5120572;28;886;-75
2021/05/16 08:39:02;;;;;;;;;;;;;;;21.55;29.69;97275.41;5103204;28;1055;-75
2021/05/16 08:41:28;;;;;;;;;;;;;;;21.47;29.73;97268.47;5120688;28;650;-75
2021/05/16 08:43:54;;;;;;;;;;;;;;;21.52;29.62;97271.50;5103139;28;1940;-75
2021/05/16 08:46:21;;;;;;;;;;;;;;;21.61;29.24;97267.94;5103362;28;1255;-75
2021/05/16 08:48:46;;;;;;;;;;;;;;;21.59;29.65;97270.41;5120530;28;864;-75
2021/05/16 08:51:12;;;;;;;;;;;;;;;21.64;29.43;97271.88;5102559;28;1045;-75
2021/05/16 08:53:37;;;;;;;;;;;;;;;21.43;29.78;97279.91;5102550;28;1161;-75
2021/05/16 08:56:06;;;;;;;;;;;;;;;21.52;29.58;97279.19;5124876;28;1221;-75
2021/05/16 08:58:32;;;;;;;;;;;;;;;21.64;29.50;97278.31;5124719;28;1177;-75
2021/05/16 09:00:57;;;;;;;;;;;;;;;21.49;29.44;97263.91;5124773;28;633;-75
2021/05/16 09:03:23;;;;;;;;;;;;;;;21.49;29.87;97257.47;5107108;28;1903;-75
2021/05/16 09:05:50;;;;;;;;;;;;;;;21.47;29.63;97257.16;5124663;28;595;-75
2021/05/16 09:08:16;;;;;;;;;;;;;;;21.99;29.84;97258.38;5124492;28;955;-75
2021/05/16 09:10:43;;;;;;;;;;;;;;;22.27;29.83;97257.22;5124431;28;876;-75
2021/05/16 09:13:12;;;;;;;;;;;;;;;22.37;30.37;97249.53;5124665;28;832;-75
2021/05/16 09:15:37;;;;;;;;;;;;;;;22.27;30.29;97240.22;5124569;28;630;-75
2021/05/16 09:18:03;;;;;;;;;;;;;;;21.93;30.74;97240.41;5125014;28;649;-75
2021/05/16 09:20:28;;;;;;;;;;;;;;;21.84;30.64;97241.13;5124836;28;705;-73
2021/05/16 09:22:54;;;;;;;;;;;;;;;21.66;30.98;97246.69;5123983;28;1893;-74
2021/05/16 09:25:24;;;;;;;;;;;;;;;21.61;30.86;97245.28;5124260;28;903;-75
2021/05/16 09:27:50;;;;;;;;;;;;;;;21.69;30.64;97240.91;5124292;28;973;-75
2021/05/16 09:30:15;;;;;;;;;;;;;;;21.67;30.60;97237.75;5124068;28;1070;-75
2021/05/16 09:32:51;;;;;;;;;;;;;;;21.57;30.88;97238.97;5123757;28;1129;-75
2021/05/16 09:35:17;;;;;;;;;;;;;;;21.71;30.52;97238.41;5123644;28;1197;-76
2021/05/16 09:37:59;;;;;;;;;;;;;;;21.81;30.28;97231.56;5123338;28;1288;-75
2021/05/16 09:40:25;;;;;;;;;;;;;;;21.72;30.63;97237.16;5123291;28;1347;-75
2021/05/16 09:43:04;;;;;;;;;;;;;;;21.75;30.24;97233.38;5123606;28;1905;-75
2021/05/16 09:45:40;;;;;;;;;;;;;;;21.67;30.31;97226.44;5121390;28;1150;-75
2021/05/16 09:48:36;;;;;;;;;;;;;;;21.69;30.22;97228.78;5103182;28;1122;-75
2021/05/16 09:51:02;;;;;;;;;;;;;;;21.62;30.29;97212.88;5123250;28;1325;-75
2021/05/16 09:53:28;;;;;;;;;;;;;;;21.58;30.11;97247.00;5123475;28;829;-75
2021/05/16 09:55:54;;;;;;;;;;;;;;;21.54;30.12;97222.91;5123732;28;879;-75
2021/05/16 09:58:19;;;;;;;;;;;;;;;21.49;30.33;97220.66;5105964;28;1079;-75
2021/05/16 10:00:45;;;;;;;;;;;;;;;21.55;30.37;97213.16;5106316;28;590;-75
2021/05/16 10:03:10;;;;;;;;;;;;;;;21.66;30.01;97209.91;5105803;28;1981;-75
2021/05/16 10:05:36;;;;;;;;;;;;;;;21.67;29.94;97212.28;5105868;28;683;-75
2021/05/16 10:08:01;;;;;;;;;;;;;;;21.70;29.55;97211.34;5105813;28;930;-75
2021/05/16 10:10:27;;;;;;;;;;;;;;;21.63;29.80;97208.78;5123161;27;891;-75
2021/05/16 10:12:52;;;;;;;;;;;;;;;21.59;30.03;97208.13;5123595;28;1085;-75
2021/05/16 10:15:20;;;;;;;;;;;;;;;21.52;29.79;97203.56;5123347;28;637;-75
2021/05/16 10:17:49;;;;;;;;;;;;;;;21.64;29.81;97201.88;5123603;28;689;-75
2021/05/16 10:20:15;;;;;;;;;;;;;;;21.48;30.04;97205.72;5105613;28;658;-75
2021/05/16 10:22:41;;;;;;;;;;;;;;;21.53;29.57;97199.47;5123031;28;1890;-75
2021/05/16 10:25:06;;;;;;;;;;;;;;;21.51;29.68;97206.84;5122870;28;893;-75
2021/05/16 10:27:42;;;;;;;;;;;;;;;21.44;29.64;97210.72;5123349;28;852;-75
2021/05/16 10:30:07;;;;;;;;;;;;;;;21.45;29.68;97200.19;5123044;28;673;-75
2021/05/16 10:32:37;;;;;;;;;;;;;;;21.47;29.64;97203.38;5123156;28;653;-75
2021/05/16 10:35:11;;;;;;;;;;;;;;;21.61;29.54;97194.31;5123164;28;670;-75
2021/05/16 10:37:47;;;;;;;;;;;;;;;21.40;29.87;97190.28;5122756;28;807;-75
2021/05/16 10:40:23;;;;;;;;;;;;;;;21.58;29.76;97196.03;5104959;28;848;-75
2021/05/16 10:42:50;;;;;;;;;;;;;;;21.48;29.77;97185.13;5123159;28;1955;-75
2021/05/16 10:45:23;;;;;;;;;;;;;;;21.59;29.52;97191.16;5104663;28;1181;-75
2021/05/16 10:47:52;;;;;;;;;;;;;;;21.61;29.25;97188.66;5119545;28;1145;-75
2021/05/16 10:50:24;;;;;;;;;;;;;;;21.59;29.60;97186.28;5138648;27;1180;-75
2021/05/16 10:52:55;;;;;;;;;;;;;;;21.66;29.54;97190.91;5119419;28;1063;-75
2021/05/16 10:55:28;;;;;;;;;;;;;;;21.59;29.61;97185.50;5104492;28;1204;-75
2021/05/16 10:57:53;;;;;;;;;;;;;;;21.55;29.58;97190.50;5102392;28;1181;-75
2021/05/16 11:00:30;;;;;;;;;;;;;;;21.59;29.61;97180.63;5121852;28;1279;-75
2021/05/16 11:03:01;;;;;;;;;;;;;;;21.59;29.68;97208.94;5120203;28;1964;-76
2021/05/16 11:08:11;;;;;;;;;;;;;;;21.45;29.74;97184.03;5104064;28;1206;-75
2021/05/16 11:10:39;;;;;;;;;;;;;;;21.60;30.05;97175.75;5121474;28;1157;-75
2021/05/16 11:13:11;;;;;;;;;;;;;;;21.64;29.99;97169.94;5121949;28;1256;-75
2021/05/16 11:15:36;;;;;;;;;;;;;;;21.74;29.88;97174.41;5121904;28;1169;-75
2021/05/16 11:18:06;;;;;;;;;;;;;;;21.86;29.51;97173.47;5121120;28;1208;-75
2021/05/16 11:20:31;;;;;;;;;;;;;;;21.67;30.13;97172.66;5119675;28;1192;-75
2021/05/16 11:22:57;;;;;;;;;;;;;;;21.66;29.98;97168.25;5103420;28;1901;-75
2021/05/16 11:25:25;;;;;;;;;;;;;;;21.71;29.98;97170.47;5121296;28;1165;-75
2021/05/16 11:27:51;;;;;;;;;;;;;;;21.70;30.26;97156.75;5119109;28;1110;-75
2021/05/16 11:30:16;;;;;;;;;;;;;;;21.63;30.26;97163.50;5121685;28;1200;-76
2021/05/16 11:32:42;;;;;;;;;;;;;;;21.72;30.43;97152.22;5121594;28;1287;-75
2021/05/16 11:35:17;;;;;;;;;;;;;;;21.70;30.28;97149.03;5121167;28;1472;-75
2021/05/16 11:37:45;;;;;;;;;;;;;;;21.66;30.31;97151.25;5121216;28;1244;-75
2021/05/16 11:40:11;;;;;;;;;;;;;;;21.64;30.42;97148.09;5136801;27;1216;-75
2021/05/16 11:42:39;;;;;;;;;;;;;;;21.67;30.40;97149.22;5103275;28;1898;-75
2021/05/16 11:45:05;;;;;;;;;;;;;;;21.90;30.04;97153.53;5121338;28;1157;-75
2021/05/16 11:47:36;;;;;;;;;;;;;;;21.69;30.38;97141.81;5121393;28;1185;-76
2021/05/16 11:50:02;;;;;;;;;;;;;;;21.70;30.21;97146.22;5121386;28;1173;-75
2021/05/16 11:52:27;;;;;;;;;;;;;;;21.91;30.03;97143.75;5120808;28;1335;-76
2021/05/16 11:54:53;;;;;;;;;;;;;;;21.85;30.20;97135.88;5103111;28;1289;-75
2021/05/16 11:57:21;;;;;;;;;;;;;;;21.77;30.09;97140.28;5120835;28;1115;-75
2021/05/16 11:59:46;;;;;;;;;;;;;;;21.92;30.24;97134.03;5121205;28;1264;-75
2021/05/16 12:02:12;;;;;;;;;;;;;;;21.75;30.44;97131.44;5121298;28;665;-75
2021/05/16 12:04:38;;;;;;;;;;;;;;;21.84;29.98;97122.19;5121171;28;1909;-75
2021/05/16 12:07:05;;;;;;;;;;;;;;;21.97;29.98;97119.25;5121119;28;1032;-75
2021/05/16 12:09:35;;;;;;;;;;;;;;;21.83;30.03;97115.75;5121011;28;794;-74
2021/05/16 12:12:01;;;;;;;;;;;;;;;21.71;30.16;97116.66;5121456;28;831;-75
2021/05/16 12:14:27;;;;;;;;;;;;;;;21.73;30.54;97116.97;5121132;28;677;-75
2021/05/16 12:16:55;;;;;;;;;;;;;;;21.59;30.61;97111.91;5103555;28;661;-75
2021/05/16 12:19:22;;;;;;;;;;;;;;;21.73;30.24;97110.53;5121252;28;688;-75
2021/05/16 12:21:54;;;;;;;;;;;;;;;21.87;30.06;97100.66;5103477;28;1053;-75
2021/05/16 12:24:21;;;;;;;;;;;;;;;21.86;30.07;97099.84;5137146;27;1905;-75
2021/05/16 12:26:46;;;;;;;;;;;;;;;21.77;30.46;97102.69;5120928;28;893;-74
2021/05/16 12:29:12;;;;;;;;;;;;;;;21.73;30.70;97094.31;5121191;28;633;-75
2021/05/16 12:31:38;;;;;;;;;;;;;;;21.72;30.62;97091.97;5103192;28;709;-75
2021/05/16 12:34:04;;;;;;;;;;;;;;;21.70;30.35;97086.75;5121099;28;664;-75
2021/05/16 12:36:29;;;;;;;;;;;;;;;21.64;30.89;97090.69;5103017;28;935;-75
2021/05/16 12:38:55;;;;;;;;;;;;;;;21.72;30.48;97077.81;5120518;28;848;-75
2021/05/16 12:41:27;;;;;;;;;;;;;;;21.73;30.43;97076.56;5120675;28;852;-75
2021/05/16 12:44:22;;;;;;;;;;;;;;;21.83;30.52;97083.81;5137044;27;1901;-75
2021/05/16 12:46:48;;;;;;;;;;;;;;;21.81;30.44;97074.97;5112245;28;1280;-75
2021/05/16 12:49:17;;;;;;;;;;;;;;;21.75;30.40;97060.66;5120636;28;637;-75
2021/05/16 12:51:51;;;;;;;;;;;;;;;21.70;30.63;97064.09;5103323;28;880;-76
2021/05/16 12:54:20;;;;;;;;;;;;;;;21.93;30.14;97061.97;5102470;28;1157;-75
2021/05/16 12:56:53;;;;;;;;;;;;;;;21.89;30.28;97059.28;5120951;28;919;-75
2021/05/16 12:59:26;;;;;;;;;;;;;;;21.71;30.64;97050.75;5103340;28;1111;-75
2021/05/16 13:01:52;;;;;;;;;;;;;;;21.85;29.96;97050.94;5120764;28;657;-75
2021/05/16 13:04:18;;;;;;;;;;;;;;;21.81;30.41;97050.31;5103080;28;1905;-75